Time;durP1;ratioP1;P1;durP2;ratioP2;P2;SDS_P1;SDS_P2;PMS_P1;PMS_P2;Temp;Humidity;BMP_temperature;BMP_pressure;BME280_temperature;BME280_humidity;BME280_pressure;Samples;Min_cycle;Max_cycle;Signal;HPM_P1;HPM_P2
2021/05/27 00:01:11;;;;;;;26.20;11.45;;;10.40;99.90;;;;;;5115630;28;20027;-78
2021/05/27 00:03:37;;;;;;;15.63;9.15;;;10.60;99.90;;;;;;5115496;28;20467;-78
2021/05/27 00:06:02;;;;;;;28.73;9.15;;;10.60;99.90;;;;;;5114326;28;20065;-79
2021/05/27 00:08:31;;;;;;;35.22;11.55;;;10.60;99.90;;;;;;5114941;28;20028;-78
2021/05/27 00:10:57;;;;;;;31.70;10.98;;;10.60;99.90;;;;;;5115190;28;20015;-78
2021/05/27 00:13:22;;;;;;;24.40;8.75;;;10.60;99.90;;;;;;5114805;28;20024;-78
2021/05/27 00:15:48;;;;;;;19.83;9.85;;;10.70;99.90;;;;;;5103033;28;20042;-77
2021/05/27 00:18:13;;;;;;;26.75;9.15;;;10.60;99.90;;;;;;5112477;28;20040;-77
2021/05/27 00:20:40;;;;;;;29.10;8.07;;;10.60;99.90;;;;;;5114025;28;20034;-77
2021/05/27 00:23:05;;;;;;;21.73;8.73;;;10.60;99.90;;;;;;5114647;28;20026;-78
2021/05/27 00:25:31;;;;;;;28.77;9.57;;;10.50;99.90;;;;;;5114935;28;20106;-78
2021/05/27 00:27:57;;;;;;;22.85;8.50;;;10.60;99.90;;;;;;5113791;28;20069;-77
2021/05/27 00:30:22;;;;;;;24.73;10.60;;;10.50;99.90;;;;;;5114309;28;20099;-78
2021/05/27 00:32:49;;;;;;;18.75;7.05;;;10.50;99.90;;;;;;5114862;28;20019;-79
2021/05/27 00:35:14;;;;;;;19.52;7.78;;;10.40;99.90;;;;;;5095610;28;20015;-78
2021/05/27 00:37:41;;;;;;;18.80;7.00;;;10.40;99.90;;;;;;5114859;28;20043;-77
2021/05/27 00:40:08;;;;;;;21.23;8.15;;;10.40;99.90;;;;;;5114667;28;20080;-78
2021/05/27 00:42:34;;;;;;;19.27;6.53;;;10.40;99.90;;;;;;5113901;28;20061;-78
2021/05/27 00:45:06;;;;;;;14.65;7.43;;;10.40;99.90;;;;;;5114409;28;20024;-78
2021/05/27 00:47:32;;;;;;;21.35;7.10;;;10.30;99.90;;;;;;5100752;28;20031;-78
2021/05/27 00:49:57;;;;;;;24.38;8.27;;;10.30;99.90;;;;;;5093368;28;20024;-79
2021/05/27 00:52:23;;;;;;;18.38;8.32;;;10.30;99.90;;;;;;5094358;28;20468;-78
2021/05/27 00:54:50;;;;;;;23.42;7.57;;;10.30;99.90;;;;;;5093518;28;20107;-78
2021/05/27 00:57:32;;;;;;;29.85;9.93;;;9.90;99.90;;;;;;5094323;28;20081;-79
2021/05/27 00:59:59;;;;;;;21.35;7.30;;;10.30;99.90;;;;;;5094170;28;20036;-79
2021/05/27 01:02:25;;;;;;;22.48;9.40;;;10.30;99.90;;;;;;5093245;28;20020;-77
2021/05/27 01:04:52;;;;;;;21.58;9.02;;;10.30;99.90;;;;;;5094229;28;20071;-78
2021/05/27 01:07:17;;;;;;;20.02;7.97;;;10.30;99.90;;;;;;5093672;28;20024;-79
2021/05/27 01:09:43;;;;;;;22.10;7.50;;;10.20;99.90;;;;;;5093401;28;20073;-79
2021/05/27 01:12:09;;;;;;;27.02;9.15;;;10.30;99.90;;;;;;5093490;28;20374;-78
2021/05/27 01:17:19;;;;;;;26.60;7.68;;;10.20;99.90;;;;;;5097526;28;20093;-78
2021/05/27 01:19:45;;;;;;;22.70;7.85;;;10.20;99.90;;;;;;5094404;28;20028;-79
2021/05/27 01:22:10;;;;;;;15.20;6.50;;;10.20;99.90;;;;;;5075594;28;20441;-78
2021/05/27 01:24:36;;;;;;;23.38;7.32;;;10.10;99.90;;;;;;5093369;28;20035;-78
2021/05/27 01:27:02;;;;;;;24.30;7.38;;;10.10;99.90;;;;;;5093233;28;20020;-78
2021/05/27 01:29:27;;;;;;;23.15;8.25;;;10.10;99.90;;;;;;5093818;28;20035;-79
2021/05/27 01:31:53;;;;;;;21.98;7.85;;;10.10;99.90;;;;;;5102109;28;20041;-78
2021/05/27 01:34:18;;;;;;;20.65;8.23;;;10.10;99.90;;;;;;5098424;28;20081;-78
2021/05/27 01:36:47;;;;;;;22.52;8.57;;;10.10;99.90;;;;;;5093396;28;20084;-78
2021/05/27 01:39:13;;;;;;;16.35;8.10;;;10.10;99.90;;;;;;5092422;28;20044;-78
2021/05/27 01:41:39;;;;;;;33.03;10.02;;;10.10;99.90;;;;;;5092250;28;20024;-79
2021/05/27 01:44:05;;;;;;;40.28;8.50;;;10.10;99.90;;;;;;5092223;28;20533;-79
2021/05/27 01:46:30;;;;;;;29.42;8.95;;;10.10;99.90;;;;;;5092952;28;20085;-78
2021/05/27 01:48:56;;;;;;;22.08;6.35;;;10.10;99.90;;;;;;5093005;28;20020;-79
2021/05/27 01:51:22;;;;;;;21.73;7.93;;;10.10;99.90;;;;;;5092517;28;20073;-78
2021/05/27 01:53:47;;;;;;;19.40;8.35;;;10.10;99.90;;;;;;5093088;28;20372;-79
2021/05/27 01:56:13;;;;;;;21.60;7.35;;;10.00;99.90;;;;;;5093050;28;20020;-78
2021/05/27 01:58:39;;;;;;;27.73;7.80;;;10.10;99.90;;;;;;5092160;28;20067;-79
2021/05/27 02:01:07;;;;;;;18.40;7.55;;;10.10;99.90;;;;;;5092549;28;20103;-79
2021/05/27 02:03:33;;;;;;;18.35;6.93;;;10.10;99.90;;;;;;5092619;28;20036;-78
2021/05/27 02:05:58;;;;;;;19.40;7.97;;;10.10;99.90;;;;;;5091671;28;20436;-77
2021/05/27 02:08:25;;;;;;;23.92;8.43;;;10.10;99.90;;;;;;5107384;28;20023;-77
2021/05/27 02:10:51;;;;;;;28.67;7.78;;;10.10;99.90;;;;;;5105875;28;20150;-77
2021/05/27 02:13:16;;;;;;;22.20;6.88;;;10.00;99.90;;;;;;5092107;28;20111;-79
2021/05/27 02:15:42;;;;;;;23.20;7.95;;;10.10;99.90;;;;;;5097494;28;20027;-79
2021/05/27 02:18:08;;;;;;;20.38;7.40;;;10.10;99.90;;;;;;5101761;28;20039;-78
2021/05/27 02:20:33;;;;;;;27.05;8.95;;;10.10;99.90;;;;;;5091768;28;20134;-78
2021/05/27 02:22:59;;;;;;;18.98;7.20;;;10.10;99.90;;;;;;5100628;28;20043;-78
2021/05/27 02:25:25;;;;;;;36.72;8.02;;;10.00;99.90;;;;;;5098525;28;20129;-78
2021/05/27 02:27:50;;;;;;;30.08;7.55;;;10.10;99.90;;;;;;5104258;28;20020;-78
2021/05/27 02:30:16;;;;;;;15.20;6.97;;;10.10;99.90;;;;;;5092204;28;20016;-77
2021/05/27 02:32:42;;;;;;;20.10;7.68;;;10.00;99.90;;;;;;5092048;28;20063;-78
2021/05/27 02:35:08;;;;;;;28.75;8.10;;;10.10;99.90;;;;;;5091490;28;20063;-78
2021/05/27 02:37:34;;;;;;;15.27;6.72;;;10.00;99.90;;;;;;5091870;28;20079;-78
2021/05/27 02:40:00;;;;;;;30.83;7.95;;;10.10;99.90;;;;;;5091874;28;20109;-77
2021/05/27 02:42:25;;;;;;;29.88;7.65;;;10.10;99.90;;;;;;5091440;28;20047;-80
2021/05/27 02:44:51;;;;;;;28.40;7.85;;;10.10;99.90;;;;;;5091770;28;20119;-78
2021/05/27 02:47:16;;;;;;;23.60;7.13;;;10.10;99.90;;;;;;5091729;28;20028;-79
2021/05/27 02:49:42;;;;;;;31.20;7.18;;;10.10;99.90;;;;;;5105606;28;20035;-80
2021/05/27 02:52:07;;;;;;;27.88;8.07;;;10.00;99.90;;;;;;5091346;28;20028;-79
2021/05/27 02:54:33;;;;;;;26.88;7.97;;;10.00;99.90;;;;;;5091442;28;20380;-80
2021/05/27 02:56:59;;;;;;;20.55;8.43;;;10.00;99.90;;;;;;5092074;28;20311;-79
2021/05/27 02:59:26;;;;;;;18.90;6.80;;;10.00;99.90;;;;;;5092037;28;20079;-79
2021/05/27 03:01:52;;;;;;;18.83;6.65;;;10.00;99.90;;;;;;5090968;28;20027;-80
2021/05/27 03:04:19;;;;;;;31.95;7.15;;;10.00;99.90;;;;;;5092274;28;20027;-79
2021/05/27 03:06:45;;;;;;;35.83;8.38;;;10.00;99.90;;;;;;5093825;28;20032;-80
2021/05/27 03:09:11;;;;;;;19.05;8.18;;;10.00;99.90;;;;;;5092023;28;20332;-80
2021/05/27 03:11:36;;;;;;;16.77;6.18;;;10.00;99.90;;;;;;5092224;28;20027;-80
2021/05/27 03:14:02;;;;;;;25.88;8.85;;;10.00;99.90;;;;;;5091849;28;20031;-80
2021/05/27 03:16:28;;;;;;;25.45;7.68;;;9.90;99.90;;;;;;5102826;28;20424;-81
2021/05/27 03:18:53;;;;;;;29.10;7.65;;;9.90;99.90;;;;;;5101783;28;20046;-80
2021/05/27 03:21:19;;;;;;;30.70;8.13;;;9.90;99.90;;;;;;5094861;28;20039;-81
2021/05/27 03:23:44;;;;;;;26.98;8.02;;;9.90;99.90;;;;;;5107405;28;20036;-84
2021/05/27 03:26:11;;;;;;;28.52;7.22;;;9.90;99.90;;;;;;5092960;28;20489;-82
2021/05/27 03:28:37;;;;;;;24.42;7.35;;;9.90;99.90;;;;;;5092065;28;20066;-81
2021/05/27 03:31:03;;;;;;;30.35;9.07;;;9.80;99.90;;;;;;5090874;28;20024;-81
2021/05/27 03:33:28;;;;;;;18.58;7.38;;;9.80;99.90;;;;;;5091435;28;20069;-79
2021/05/27 03:35:54;;;;;;;21.65;7.35;;;9.80;99.90;;;;;;5108448;28;20030;-80
2021/05/27 03:38:19;;;;;;;34.10;7.88;;;9.80;99.90;;;;;;5102134;28;20048;-81
2021/05/27 03:40:45;;;;;;;27.13;7.95;;;9.90;99.90;;;;;;5105841;28;20099;-79
2021/05/27 03:43:10;;;;;;;27.80;7.60;;;9.80;99.90;;;;;;5091101;28;20055;-80
2021/05/27 03:45:36;;;;;;;26.20;7.55;;;9.90;99.90;;;;;;5090635;28;20036;-81
2021/05/27 03:48:02;;;;;;;28.05;7.95;;;9.90;99.90;;;;;;5096911;28;20085;-79
2021/05/27 03:50:30;;;;;;;19.30;7.03;;;9.80;99.90;;;;;;5103347;28;20039;-80
2021/05/27 03:52:58;;;;;;;29.00;7.97;;;9.80;99.90;;;;;;5093437;28;20028;-79
2021/05/27 03:55:24;;;;;;;26.02;7.65;;;9.80;99.90;;;;;;5091394;28;20024;-80
2021/05/27 03:57:54;;;;;;;20.67;6.07;;;9.90;99.90;;;;;;5090548;28;20028;-79
2021/05/27 04:03:07;;;;;;;27.42;7.63;;;9.80;99.90;;;;;;5092131;28;20396;-80
2021/05/27 04:08:18;;;;;;;24.33;7.85;;;9.80;99.90;;;;;;5095409;28;20081;-79
2021/05/27 04:10:45;;;;;;;17.23;6.80;;;9.80;99.90;;;;;;5109393;28;20115;-79
2021/05/27 04:13:11;;;;;;;15.63;6.88;;;9.80;99.90;;;;;;5094123;28;20487;-79
2021/05/27 04:15:40;;;;;;;26.35;8.73;;;9.80;99.90;;;;;;5094570;28;20020;-79
2021/05/27 04:18:09;;;;;;;26.42;7.43;;;9.80;99.90;;;;;;5094634;28;20039;-79
2021/05/27 04:20:51;;;;;;;29.75;7.63;;;9.80;99.90;;;;;;5108273;28;20024;-79
2021/05/27 04:23:33;;;;;;;24.25;7.38;;;9.80;99.90;;;;;;5094985;28;20036;-79
2021/05/27 04:25:59;;;;;;;18.27;7.03;;;9.80;99.90;;;;;;5093580;28;20489;-79
2021/05/27 04:28:25;;;;;;;23.83;7.55;;;9.90;99.90;;;;;;5094820;28;20051;-79
2021/05/27 04:31:09;;;;;;;20.63;7.07;;;10.10;99.90;;;;;;5097726;28;20451;-79
2021/05/27 04:33:43;;;;;;;20.20;7.10;;;9.80;99.90;;;;;;5102175;28;20495;-78
2021/05/27 04:36:16;;;;;;;22.15;7.55;;;9.90;99.90;;;;;;5094382;28;20026;-78
2021/05/27 04:38:44;;;;;;;20.40;7.03;;;9.90;99.90;;;;;;5094809;28;20040;-78
2021/05/27 04:41:10;;;;;;;19.23;6.97;;;9.80;99.90;;;;;;5094521;28;20396;-79
2021/05/27 04:43:35;;;;;;;23.38;7.90;;;9.90;99.90;;;;;;5095665;28;20024;-77
2021/05/27 04:46:02;;;;;;;25.23;7.05;;;9.90;99.90;;;;;;5094300;28;20020;-80
2021/05/27 04:48:28;;;;;;;20.17;6.20;;;9.90;99.90;;;;;;5093821;28;20476;-78
2021/05/27 04:50:54;;;;;;;20.48;7.63;;;9.90;99.90;;;;;;5094345;28;20089;-77
2021/05/27 04:53:22;;;;;;;28.80;8.38;;;9.90;99.90;;;;;;5107858;28;20028;-77
2021/05/27 04:55:48;;;;;;;17.00;7.10;;;9.80;99.90;;;;;;5093435;28;20098;-78
2021/05/27 04:58:14;;;;;;;22.55;7.70;;;9.90;99.90;;;;;;5094038;28;20036;-78
2021/05/27 05:00:39;;;;;;;28.90;9.07;;;9.90;99.90;;;;;;5094301;28;20085;-78
2021/05/27 05:03:05;;;;;;;16.08;6.60;;;9.90;99.90;;;;;;5093291;28;20081;-78
2021/05/27 05:05:33;;;;;;;29.10;7.70;;;9.90;99.90;;;;;;5094075;28;20025;-78
2021/05/27 05:07:58;;;;;;;15.98;7.05;;;9.90;99.90;;;;;;5093679;28;20514;-78
2021/05/27 05:10:26;;;;;;;19.40;6.45;;;9.90;99.90;;;;;;5093677;28;20020;-78
2021/05/27 05:12:52;;;;;;;17.02;7.13;;;9.90;99.90;;;;;;5095839;28;20039;-78
2021/05/27 05:15:35;;;;;;;21.33;8.25;;;9.90;99.90;;;;;;5094922;28;20020;-77
2021/05/27 05:18:09;;;;;;;21.67;7.50;;;10.00;99.90;;;;;;5104569;28;20383;-78
2021/05/27 05:20:49;;;;;;;20.63;7.28;;;10.00;99.90;;;;;;5110988;28;20061;-78
2021/05/27 05:23:14;;;;;;;28.75;7.78;;;10.00;99.90;;;;;;5095552;28;20398;-78
2021/05/27 05:25:41;;;;;;;22.98;7.90;;;10.00;99.90;;;;;;5097128;28;20030;-78
2021/05/27 05:28:08;;;;;;;21.73;8.40;;;10.00;99.90;;;;;;5099616;28;20028;-77
2021/05/27 05:30:34;;;;;;;17.10;7.00;;;9.90;99.90;;;;;;5093423;28;20027;-77
2021/05/27 05:33:00;;;;;;;23.55;7.70;;;10.00;99.90;;;;;;5100460;28;20471;-77
2021/05/27 05:35:26;;;;;;;10.07;6.07;;;10.00;99.90;;;;;;5113811;28;20114;-77
2021/05/27 05:37:52;;;;;;;31.05;7.10;;;10.00;99.90;;;;;;5092841;28;20897;-76
2021/05/27 05:40:20;;;;;;;21.80;7.43;;;10.00;99.90;;;;;;5093093;28;20038;-78
2021/05/27 05:42:46;;;;;;;22.35;7.68;;;10.00;99.90;;;;;;5106131;27;20111;-79
2021/05/27 05:45:16;;;;;;;29.58;8.10;;;10.00;99.90;;;;;;5096709;27;20107;-78
2021/05/27 05:47:47;;;;;;;26.63;8.00;;;10.00;99.90;;;;;;5094004;27;20043;-78
2021/05/27 05:50:14;;;;;;;16.70;7.85;;;10.00;99.90;;;;;;5097715;27;20028;-78
2021/05/27 05:52:40;;;;;;;17.85;7.00;;;10.10;99.90;;;;;;5102375;27;20035;-76
2021/05/27 05:55:06;;;;;;;19.10;6.72;;;10.10;99.90;;;;;;5097034;27;20024;-77
2021/05/27 05:57:31;;;;;;;20.98;7.68;;;10.10;99.90;;;;;;5097394;27;20400;-78
2021/05/27 05:59:57;;;;;;;27.73;9.20;;;10.10;99.90;;;;;;5096558;28;20039;-77
2021/05/27 06:02:23;;;;;;;16.73;7.05;;;10.10;99.90;;;;;;5092868;28;20468;-77
2021/05/27 06:04:49;;;;;;;17.23;6.32;;;10.10;99.90;;;;;;5098934;27;20383;-78
2021/05/27 06:07:19;;;;;;;18.17;6.43;;;10.10;99.90;;;;;;5094231;27;20055;-77
2021/05/27 06:09:45;;;;;;;20.27;7.55;;;10.10;99.90;;;;;;5096603;27;20384;-78
2021/05/27 06:12:11;;;;;;;17.25;6.03;;;10.10;99.90;;;;;;5106489;27;20019;-78
2021/05/27 06:14:36;;;;;;;22.65;7.55;;;10.20;99.90;;;;;;5097424;27;20452;-78
2021/05/27 06:17:02;;;;;;;22.15;6.90;;;10.20;99.90;;;;;;5098038;27;20035;-78
2021/05/27 06:19:27;;;;;;;16.83;6.22;;;10.20;99.90;;;;;;5095825;28;20032;-77
2021/05/27 06:21:53;;;;;;;22.75;7.57;;;10.10;99.90;;;;;;5093528;28;20020;-78
2021/05/27 06:24:19;;;;;;;13.65;6.28;;;10.20;99.90;;;;;;5093822;27;20406;-78
2021/05/27 06:26:44;;;;;;;24.92;7.68;;;10.20;99.90;;;;;;5096565;27;20088;-78
2021/05/27 06:29:10;;;;;;;21.15;6.85;;;10.20;99.90;;;;;;5098142;27;20359;-78
2021/05/27 06:31:36;;;;;;;22.60;7.07;;;10.20;99.90;;;;;;5094757;27;20016;-77
2021/05/27 06:34:01;;;;;;;21.58;7.20;;;10.20;99.90;;;;;;5109590;28;20020;-78
2021/05/27 06:36:30;;;;;;;15.35;5.38;;;10.30;99.90;;;;;;5105183;27;20031;-77
2021/05/27 06:38:55;;;;;;;20.95;7.53;;;10.30;99.90;;;;;;5103554;27;20044;-80
2021/05/27 06:41:21;;;;;;;19.27;6.20;;;10.30;99.90;;;;;;5111981;27;20039;-81
2021/05/27 06:43:47;;;;;;;27.58;6.05;;;10.30;99.90;;;;;;5098071;27;20038;-81
2021/05/27 06:46:13;;;;;;;23.27;5.75;;;10.30;99.90;;;;;;5114640;28;20051;-81
2021/05/27 06:48:39;;;;;;;27.63;6.75;;;10.30;99.90;;;;;;5111633;28;20047;-81
2021/05/27 06:51:05;;;;;;;9.68;5.45;;;10.30;99.90;;;;;;5100379;28;20020;-79
2021/05/27 06:53:30;;;;;;;24.27;5.78;;;10.30;99.90;;;;;;5096789;28;20024;-80
2021/05/27 06:55:56;;;;;;;15.73;6.10;;;10.30;99.90;;;;;;5103659;28;20110;-79
2021/05/27 06:58:22;;;;;;;27.05;6.30;;;10.30;99.90;;;;;;5105423;28;20087;-80
2021/05/27 07:00:47;;;;;;;18.17;5.65;;;10.30;99.90;;;;;;5096819;28;20047;-80
2021/05/27 07:03:16;;;;;;;24.23;5.68;;;10.30;99.90;;;;;;5106702;28;20016;-81
2021/05/27 07:05:42;;;;;;;19.10;6.20;;;10.40;99.90;;;;;;5106887;28;20321;-80
2021/05/27 07:08:07;;;;;;;16.88;5.70;;;10.40;99.90;;;;;;5114491;28;20152;-80
2021/05/27 07:10:33;;;;;;;18.05;5.78;;;10.30;99.90;;;;;;5130237;28;20020;-81
2021/05/27 07:13:02;;;;;;;23.35;6.47;;;10.40;99.90;;;;;;5108094;28;20020;-81
2021/05/27 07:15:27;;;;;;;20.83;6.55;;;10.40;99.90;;;;;;5108609;28;20430;-80
2021/05/27 07:17:54;;;;;;;17.38;5.45;;;10.40;99.90;;;;;;5100386;28;20158;-81
2021/05/27 07:20:22;;;;;;;19.83;5.30;;;10.40;99.90;;;;;;5099613;28;20036;-82
2021/05/27 07:22:49;;;;;;;16.75;5.68;;;10.40;99.90;;;;;;5094722;28;20379;-82
2021/05/27 07:25:15;;;;;;;21.52;5.97;;;10.50;99.90;;;;;;5100128;28;20028;-81
2021/05/27 07:27:42;;;;;;;20.77;5.72;;;10.40;99.90;;;;;;5104077;28;20621;-81
2021/05/27 07:30:09;;;;;;;21.52;6.32;;;10.40;99.90;;;;;;5099371;28;20066;-81
2021/05/27 07:32:36;;;;;;;24.10;6.00;;;10.50;99.90;;;;;;5095421;28;20062;-84
2021/05/27 07:35:03;;;;;;;22.25;6.40;;;10.50;99.90;;;;;;5113344;28;20031;-81
2021/05/27 07:37:29;;;;;;;17.38;5.65;;;10.50;99.90;;;;;;5112431;28;20027;-78
2021/05/27 07:39:54;;;;;;;13.13;5.40;;;10.60;99.90;;;;;;5106758;27;20058;-83
2021/05/27 07:42:20;;;;;;;16.38;4.90;;;10.70;99.90;;;;;;5104588;27;20035;-81
2021/05/27 07:44:45;;;;;;;14.32;5.35;;;10.70;99.90;;;;;;5099878;27;20495;-81
2021/05/27 07:47:11;;;;;;;12.90;4.55;;;10.80;99.90;;;;;;5110858;27;20027;-82
2021/05/27 07:49:36;;;;;;;10.75;4.97;;;10.80;99.90;;;;;;5104527;27;20028;-80
2021/05/27 07:52:02;;;;;;;20.35;5.18;;;10.90;99.90;;;;;;5098525;27;20317;-82
2021/05/27 07:54:28;;;;;;;26.10;6.30;;;10.80;99.90;;;;;;5100150;27;20032;-83
2021/05/27 07:56:54;;;;;;;14.65;5.40;;;10.80;99.90;;;;;;5096748;27;20099;-79
2021/05/27 07:59:20;;;;;;;17.60;6.20;;;10.80;99.90;;;;;;5096637;28;20032;-81
2021/05/27 08:01:46;;;;;;;20.60;5.07;;;10.80;99.90;;;;;;5097657;28;20027;-80
2021/05/27 08:04:12;;;;;;;16.85;4.43;;;10.70;99.90;;;;;;5095047;28;20032;-82
2021/05/27 08:06:40;;;;;;;21.98;6.30;;;10.70;99.90;;;;;;5096076;28;20414;-82
2021/05/27 08:09:07;;;;;;;15.85;4.75;;;10.70;99.90;;;;;;5103225;28;20055;-82
2021/05/27 08:11:34;;;;;;;19.83;5.75;;;10.70;99.90;;;;;;5105924;28;20495;-76
2021/05/27 08:14:00;;;;;;;25.30;4.63;;;10.60;99.90;;;;;;5108479;28;20027;-75
2021/05/27 08:16:28;;;;;;;14.60;4.82;;;10.60;99.90;;;;;;5106387;28;20051;-76
2021/05/27 08:18:54;;;;;;;17.23;5.03;;;10.70;99.90;;;;;;5123236;27;20076;-75
2021/05/27 08:21:19;;;;;;;18.08;4.93;;;10.60;99.90;;;;;;5131545;27;20015;-78
2021/05/27 08:23:45;;;;;;;14.57;5.18;;;10.60;99.90;;;;;;5128755;27;20023;-81
2021/05/27 08:26:11;;;;;;;18.63;5.40;;;10.60;99.90;;;;;;5130072;27;20047;-80
2021/05/27 08:28:37;;;;;;;18.92;5.40;;;10.60;99.90;;;;;;5129174;27;20085;-82
2021/05/27 08:31:03;;;;;;;12.05;4.68;;;10.70;99.90;;;;;;5130017;27;20463;-81
2021/05/27 08:33:29;;;;;;;18.90;5.53;;;10.70;99.90;;;;;;5132810;27;20478;-78
2021/05/27 08:35:55;;;;;;;14.27;5.57;;;10.70;99.90;;;;;;5125444;27;20046;-78
2021/05/27 08:38:21;;;;;;;13.95;5.22;;;10.80;99.90;;;;;;5130065;27;20082;-80
2021/05/27 08:40:46;;;;;;;15.57;6.07;;;10.90;99.90;;;;;;5127615;27;20032;-80
2021/05/27 08:43:13;;;;;;;11.60;5.10;;;11.00;99.90;;;;;;5131306;27;20023;-79
2021/05/27 08:45:41;;;;;;;20.52;6.15;;;11.00;99.90;;;;;;5127759;27;20027;-80
2021/05/27 08:48:17;;;;;;;19.25;5.85;;;11.10;99.90;;;;;;5132002;27;20047;-80
2021/05/27 08:50:45;;;;;;;16.75;4.68;;;11.10;99.90;;;;;;5128603;27;20066;-79
2021/05/27 08:53:15;;;;;;;13.15;4.45;;;11.20;99.90;;;;;;5128467;27;20107;-76
2021/05/27 08:55:41;;;;;;;19.10;5.90;;;11.20;99.90;;;;;;5128515;27;20420;-77
2021/05/27 08:58:08;;;;;;;16.98;4.85;;;11.20;99.90;;;;;;5113050;28;20131;-78
2021/05/27 09:00:35;;;;;;;14.57;4.97;;;11.30;99.90;;;;;;5098703;28;20030;-79
2021/05/27 09:03:03;;;;;;;24.08;4.95;;;11.30;99.90;;;;;;5110669;27;20379;-79
2021/05/27 09:05:32;;;;;;;16.05;5.47;;;11.30;99.90;;;;;;5102017;27;20478;-79
2021/05/27 09:07:58;;;;;;;21.20;6.50;;;11.40;99.90;;;;;;5104293;27;20070;-80
2021/05/27 09:10:44;;;;;;;15.93;4.55;;;11.40;99.90;;;;;;5112146;27;20023;-75
2021/05/27 09:13:27;;;;;;;15.85;5.50;;;11.40;99.90;;;;;;5110166;27;20031;-78
2021/05/27 09:16:05;;;;;;;10.52;4.50;;;11.50;99.90;;;;;;5117140;27;20094;-77
2021/05/27 09:18:33;;;;;;;23.83;5.70;;;11.60;99.90;;;;;;5108273;27;20114;-77
2021/05/27 09:21:04;;;;;;;18.08;6.15;;;11.70;99.90;;;;;;5096021;28;20379;-78
2021/05/27 09:23:29;;;;;;;21.15;5.53;;;11.70;99.90;;;;;;5099717;27;20035;-78
2021/05/27 09:26:14;;;;;;;11.82;4.93;;;11.80;99.90;;;;;;5104272;27;20016;-78
2021/05/27 09:28:41;;;;;;;15.52;5.03;;;11.70;99.90;;;;;;5100069;27;20039;-78
2021/05/27 09:31:10;;;;;;;18.33;5.47;;;11.80;99.90;;;;;;5104177;27;20028;-75
2021/05/27 09:34:00;;;;;;;21.58;6.80;;;11.70;99.90;;;;;;5108568;27;20042;-77
2021/05/27 09:36:26;;;;;;;17.83;4.82;;;11.60;99.90;;;;;;5105534;28;20054;-78
2021/05/27 09:38:57;;;;;;;18.65;5.55;;;11.60;99.90;;;;;;5106220;27;20444;-76
2021/05/27 09:41:25;;;;;;;11.45;5.25;;;11.70;99.90;;;;;;5108611;27;20023;-77
2021/05/27 09:43:53;;;;;;;15.00;5.93;;;11.70;99.90;;;;;;5130330;27;20027;-76
2021/05/27 09:46:20;;;;;;;14.55;5.05;;;11.60;99.90;;;;;;5123280;27;20023;-77
2021/05/27 09:48:45;;;;;;;19.42;6.32;;;11.60;99.90;;;;;;5104885;28;20028;-77
2021/05/27 09:51:24;;;;;;;14.93;6.25;;;11.60;99.90;;;;;;5129610;27;20048;-77
2021/05/27 09:53:54;;;;;;;13.52;4.93;;;11.60;99.90;;;;;;5142662;27;20034;-78
2021/05/27 09:56:31;;;;;;;18.92;5.72;;;11.60;99.90;;;;;;5129699;27;20442;-78
2021/05/27 09:58:57;;;;;;;17.40;4.97;;;11.50;99.90;;;;;;5093300;28;20127;-76
2021/05/27 10:01:22;;;;;;;22.35;6.00;;;11.50;99.90;;;;;;5092887;28;20050;-76
2021/05/27 10:03:48;;;;;;;19.85;5.80;;;11.60;99.90;;;;;;5092558;28;20024;-78
2021/05/27 10:06:13;;;;;;;11.27;5.07;;;11.60;99.90;;;;;;5093448;28;20119;-76
2021/05/27 10:08:50;;;;;;;25.25;6.55;;;11.60;99.90;;;;;;5093535;28;20043;-77
2021/05/27 10:11:18;;;;;;;21.08;6.07;;;11.60;99.90;;;;;;5092566;28;20073;-77
2021/05/27 10:13:44;;;;;;;20.27;6.20;;;11.60;99.90;;;;;;5093444;28;20028;-75
2021/05/27 10:16:16;;;;;;;22.65;6.10;;;11.60;99.90;;;;;;5093338;28;20024;-76
2021/05/27 10:18:42;;;;;;;25.23;5.45;;;11.70;99.90;;;;;;5092235;28;20040;-77
2021/05/27 10:21:08;;;;;;;13.02;5.97;;;11.70;99.90;;;;;;5092732;28;20039;-76
2021/05/27 10:23:34;;;;;;;18.15;6.32;;;11.70;99.90;;;;;;5113275;28;20043;-77
2021/05/27 10:26:00;;;;;;;22.08;6.93;;;11.70;99.90;;;;;;5092238;28;20027;-76
2021/05/27 10:28:26;;;;;;;19.08;6.05;;;11.80;99.90;;;;;;5075100;28;20035;-77
2021/05/27 10:30:53;;;;;;;30.73;7.20;;;11.80;99.90;;;;;;5093679;28;20464;-77
2021/05/27 10:33:20;;;;;;;24.83;8.30;;;11.80;99.90;;;;;;5104424;28;20084;-76
2021/05/27 10:35:46;;;;;;;19.45;5.13;;;11.90;99.90;;;;;;5100786;27;20378;-78
2021/05/27 10:38:12;;;;;;;24.70;6.82;;;12.00;99.90;;;;;;5116855;27;20049;-78
2021/05/27 10:40:38;;;;;;;23.60;6.97;;;12.00;99.90;;;;;;5108909;27;20102;-78
2021/05/27 10:43:09;;;;;;;16.88;5.25;;;12.00;99.90;;;;;;5121653;27;20027;-78
2021/05/27 10:45:55;;;;;;;17.10;5.10;;;12.00;99.90;;;;;;5099366;28;20111;-78
2021/05/27 10:48:23;;;;;;;14.48;5.85;;;12.00;99.90;;;;;;5108266;28;20019;-78
2021/05/27 10:50:49;;;;;;;13.60;5.95;;;12.00;99.90;;;;;;5109178;28;20023;-73
2021/05/27 10:53:33;;;;;;;14.40;5.47;;;12.00;99.90;;;;;;5120831;27;20060;-79
2021/05/27 10:56:06;;;;;;;13.20;5.97;;;12.00;99.90;;;;;;5109946;28;20023;-78
2021/05/27 10:58:47;;;;;;;13.30;4.38;;;12.00;99.90;;;;;;5099795;28;20044;-77
2021/05/27 11:01:16;;;;;;;;;;;12.00;99.90;;;;;;5095066;28;20031;-79
2021/05/27 11:03:42;;;;;;;;;;;11.80;99.90;;;;;;5099113;28;20364;-77
2021/05/27 11:06:27;;;;;;;;;;;11.80;99.90;;;;;;5093312;28;19904;-78
2021/05/27 11:09:11;;;;;;;;;;;11.80;99.90;;;;;;5100468;28;20027;-78
2021/05/27 11:11:41;;;;;;;;;;;11.70;99.90;;;;;;5102249;28;20324;-77
2021/05/27 11:14:17;;;;;;;;;;;11.70;99.90;;;;;;5101190;27;20390;-78
2021/05/27 11:22:33;;;;;;;;;;;11.60;99.90;;;;;;5102753;27;19958;-80
2021/05/27 11:25:05;;;;;;;;;;;11.80;99.90;;;;;;5099294;27;19904;-79
2021/05/27 11:27:30;;;;;;;;;;;11.50;99.90;;;;;;5101819;27;19914;-79
2021/05/27 11:30:15;;;;;;;;;;;11.60;99.90;;;;;;5107391;27;19904;-78
2021/05/27 11:32:40;;;;;;;;;;;11.60;99.90;;;;;;5103625;27;19960;-79
2021/05/27 11:35:06;;;;;;;;;;;11.80;99.90;;;;;;5105547;28;20034;-78
2021/05/27 11:37:35;;;;;;;;;;;12.00;99.90;;;;;;5106262;27;20373;-78
2021/05/27 11:40:00;;;;;;;;;;;12.30;99.90;;;;;;5101555;27;20054;-77
2021/05/27 11:42:26;;;;;;;;;;;12.40;99.90;;;;;;5129962;27;19903;-78
2021/05/27 11:45:01;;;;;;;;;;;12.50;99.90;;;;;;5102393;27;19947;-78
2021/05/27 11:47:27;;;;;;;;;;;12.80;99.90;;;;;;5099134;27;20303;-79
2021/05/27 11:50:06;;;;;;;;;;;13.00;99.90;;;;;;5118128;27;19904;-79
2021/05/27 11:52:32;;;;;;;;;;;13.20;99.90;;;;;;5115191;28;19935;-80
2021/05/27 11:54:57;;;;;;;;;;;13.50;99.90;;;;;;5097019;28;19904;-78
2021/05/27 11:57:49;;;;;;;;;;;13.40;99.90;;;;;;5097624;27;19954;-80
2021/05/27 12:00:16;;;;;;;;;;;13.30;99.90;;;;;;5093631;28;20279;-81
2021/05/27 12:02:42;;;;;;;;;;;13.30;99.90;;;;;;5095452;28;19904;-81
2021/05/27 12:05:36;;;;;;;;;;;13.50;99.90;;;;;;5094808;28;19915;-79
2021/05/27 12:08:03;;;;;;;;;;;13.70;99.90;;;;;;5090125;27;20330;-79
2021/05/27 12:10:30;;;;;;;;;;;13.80;99.90;;;;;;5113763;27;19903;-81
2021/05/27 12:12:56;;;;;;;;;;;13.80;99.90;;;;;;5105110;27;19904;-81
2021/05/27 12:15:22;;;;;;;;;;;13.80;99.90;;;;;;5111523;27;19998;-83
2021/05/27 12:17:48;;;;;;;;;;;13.70;99.90;;;;;;5107999;27;20358;-83
2021/05/27 12:20:17;;;;;;;;;;;13.70;99.90;;;;;;5108610;27;19915;-84
2021/05/27 12:22:46;;;;;;;;;;;13.70;99.90;;;;;;5111147;27;20332;-83
2021/05/27 12:25:12;;;;;;;;;;;13.90;99.90;;;;;;5105369;28;19904;-82
2021/05/27 12:27:38;;;;;;;;;;;14.30;99.90;;;;;;5133287;27;20281;-82
2021/05/27 12:30:04;;;;;;;;;;;14.40;99.90;;;;;;5134839;27;19903;-82
2021/05/27 12:32:29;;;;;;;;;;;14.30;99.90;;;;;;5118872;27;19928;-80
2021/05/27 12:34:55;;;;;;;;;;;14.40;99.90;;;;;;5111320;27;19981;-79
2021/05/27 12:37:35;;;;;;;;;;;14.30;99.90;;;;;;5100541;27;20001;-79
2021/05/27 12:40:05;;;;;;;;;;;14.20;99.90;;;;;;5089601;28;19923;-80
2021/05/27 12:42:37;;;;;;;;;;;13.90;99.90;;;;;;5110781;27;19919;-81
2021/05/27 12:45:20;;;;;;;;;;;13.60;99.90;;;;;;5108924;27;19953;-80
2021/05/27 12:48:01;;;;;;;;;;;13.40;99.90;;;;;;5102915;27;19904;-81
2021/05/27 12:50:27;;;;;;;;;;;14.00;99.90;;;;;;5107532;27;19904;-81
2021/05/27 12:52:52;;;;;;;;;;;13.20;99.90;;;;;;5115995;27;19911;-82
2021/05/27 12:55:17;;;;;;;;;;;13.10;99.90;;;;;;5111073;27;20212;-82
2021/05/27 12:57:59;;;;;;;;;;;13.20;99.90;;;;;;5114877;27;19907;-81
2021/05/27 13:00:25;;;;;;;;;;;13.20;99.90;;;;;;5108496;27;19912;-82
2021/05/27 13:03:01;;;;;;;;;;;13.20;99.90;;;;;;5114231;27;19907;-81
2021/05/27 13:05:27;;;;;;;;;;;13.10;99.90;;;;;;5109287;27;19915;-81
2021/05/27 13:07:56;;;;;;;;;;;13.10;99.90;;;;;;5106213;27;19904;-81
2021/05/27 13:10:29;;;;;;;;;;;13.00;99.90;;;;;;5104723;27;19915;-81